LEGR Airport Information

Runway Information
Runway 09 Length 9514 ft width 148 ft
Elevation 1842 ft Threshold ft Heading 90
Runway 27 Length 9514 ft Width 148 ft
Elevation 1860 ft Threshold ft Heading 270
Airport Frequencies
Type GND Name GND Frequency 121.7 MHZ
Type TWR Name TWR Frequency 118.85 MHZ
Airport Navaids
Type VOR-DME Name Granada Frequency 113400 KHZ
Airport Weather Information & NOTAM
ADDS - METARS form results

(1957 UTC 10 August 2022)
Data provider http://aviationweather.gov/metar/data/
 
METAR text: LEGR 101930Z 25008KT 220V280 CAVOK 32/15 Q1014
Conditions at: LEGR (GRANADA AIRPORT , ES) observed 1930 UTC 10 August 2022
Temperature: 32.0°C (90°F)
Dewpoint: 15.0°C (59°F) [RH = 36%]
Pressure (altimeter): 29.94 inches Hg (1014.0 mb)
Winds: from the WSW (250 degrees) at 9 MPH (8 knots; 4.1 m/s)
Visibility: 6 or more miles (10+ km)
Ceiling: ceiling and visibility are OK
Clouds: unknown
Weather: no significant weather observed at this time

METAR text: LEGR 101900Z 25008KT 210V280 CAVOK 33/15 Q1014
Conditions at: LEGR (GRANADA AIRPORT , ES) observed 1900 UTC 10 August 2022
Temperature: 33.0°C (91°F)
Dewpoint: 15.0°C (59°F) [RH = 34%]
Pressure (altimeter): 29.94 inches Hg (1014.0 mb)
Winds: from the WSW (250 degrees) at 9 MPH (8 knots; 4.1 m/s)
Visibility: 6 or more miles (10+ km)
Ceiling: ceiling and visibility are OK
Clouds: unknown
Weather: no significant weather observed at this time

Forecast for: LEGR (GRANADA AIRPORT , ES)
Text: TAF LEGR 101700Z 1018/1118 17010KT CAVOK TX39/1115Z TN19/1106Z
Forecast period: 1800 to 2000 UTC 10 August 2022
Forecast type: FROM: standard forecast or significant change
Winds: from the S (170 degrees) at 12 MPH (10 knots; 5.1 m/s)
Visibility: 6 or more miles (10+ km)
Ceiling: unknown
Clouds: missing
Weather: no significant weather forecast for this period
Text: BECMG 1020/1022 VRB02KT
Forecast period: 2000 UTC 10 August 2022 to 1100 UTC 11 August 2022
Forecast type: BECOMING: Conditions expected to become as follows by 2200 UTC 10 August 2022
Winds: variable direction winds at 2 MPH (2 knots; 1.0 m/s)
Visibility: 6 or more miles (10+ km)
Ceiling: unknown
Clouds: missing
Weather: no significant weather forecast for this period
Text: BECMG 1111/1113 23010KT
Forecast period: 1100 to 1800 UTC 11 August 2022
Forecast type: BECOMING: Conditions expected to become as follows by 1300 UTC 11 August 2022
Winds: from the SW (230 degrees) at 12 MPH (10 knots; 5.1 m/s)
Visibility: 6 or more miles (10+ km)
Ceiling: unknown
Clouds: missing
Weather: no significant weather forecast for this period